createdAt,value
2019-03-22T00:00:20.337Z,111.40
2019-03-22T00:02:51.222Z,101.97
2019-03-22T00:05:20.487Z,107.95
2019-03-22T00:07:49.663Z,109.75
2019-03-22T00:10:18.842Z,107.63
2019-03-22T00:12:49.471Z,102.55
2019-03-22T00:15:18.789Z,108.83
2019-03-22T00:17:47.966Z,119.65
2019-03-22T00:20:17.199Z,112.85
2019-03-22T00:22:46.398Z,108.05
2019-03-22T00:25:15.557Z,119.02
2019-03-22T00:27:44.829Z,118.80
2019-03-22T00:30:17.308Z,111.50
2019-03-22T00:32:46.554Z,115.35
2019-03-22T00:35:16.711Z,116.62
2019-03-22T00:37:49.138Z,112.90
2019-03-22T00:40:20.438Z,117.03
2019-03-22T00:42:52.918Z,123.00
2019-03-22T00:45:22.086Z,117.20
2019-03-22T00:47:52.207Z,115.70
2019-03-22T00:50:22.305Z,126.95
2019-03-22T00:52:51.470Z,121.42
2019-03-22T00:55:21.774Z,119.15
2019-03-22T00:57:50.997Z,127.10
2019-03-22T01:00:22.790Z,124.47
2019-03-22T01:02:51.957Z,127.62
2019-03-22T01:05:22.193Z,124.20
2019-03-22T01:07:55.315Z,138.80
2019-03-22T01:10:26.301Z,130.60
2019-03-22T01:12:55.507Z,130.25
2019-03-22T01:15:24.675Z,135.85
2019-03-22T01:17:53.872Z,132.22
2019-03-22T01:20:24.011Z,141.15
2019-03-22T01:22:55.210Z,142.80
2019-03-22T01:25:24.374Z,140.90
2019-03-22T01:27:54.563Z,138.62
2019-03-22T01:30:25.144Z,135.80
2019-03-22T01:32:55.331Z,132.25
2019-03-22T01:35:24.610Z,142.37
2019-03-22T01:37:54.753Z,142.10
2019-03-22T01:40:24.002Z,141.03
2019-03-22T01:42:54.201Z,136.07
2019-03-22T01:45:23.361Z,129.70
2019-03-22T01:47:53.462Z,132.20
2019-03-22T01:50:22.686Z,135.70
2019-03-22T01:52:51.878Z,140.82
2019-03-22T01:55:22.125Z,137.77
2019-03-22T01:57:54.101Z,135.37
2019-03-22T02:00:24.572Z,142.82
2019-03-22T02:02:53.795Z,144.47
2019-03-22T02:05:22.977Z,144.97
2019-03-22T02:07:54.126Z,140.28
2019-03-22T02:10:23.302Z,148.05
2019-03-22T02:12:53.543Z,138.82
2019-03-22T02:15:22.788Z,155.45
2019-03-22T02:17:51.962Z,145.12
2019-03-22T02:20:21.152Z,147.13
2019-03-22T02:22:50.422Z,155.05
2019-03-22T02:25:19.647Z,150.65
2019-03-22T02:27:48.923Z,144.30
2019-03-22T02:30:20.178Z,145.53
2019-03-22T02:32:50.439Z,147.93
2019-03-22T02:35:28.243Z,154.68
2019-03-22T02:37:50.536Z,151.42
2019-03-22T02:40:19.705Z,148.13
2019-03-22T02:42:48.952Z,151.22
2019-03-22T02:45:19.797Z,165.60
2019-03-22T02:47:48.992Z,162.10
2019-03-22T02:50:19.832Z,164.35
2019-03-22T02:52:50.207Z,158.60
2019-03-22T02:55:19.500Z,159.30
2019-03-22T02:57:49.676Z,172.20
2019-03-22T03:00:19.900Z,159.93
2019-03-22T03:02:50.760Z,157.50
2019-03-22T03:05:20.015Z,169.80
2019-03-22T03:07:49.216Z,169.35
2019-03-22T03:10:18.480Z,158.32
2019-03-22T03:12:47.669Z,162.27
2019-03-22T03:15:18.020Z,157.30
2019-03-22T03:17:49.264Z,157.60
2019-03-22T03:20:19.319Z,154.35
2019-03-22T03:22:50.231Z,155.67
2019-03-22T03:25:19.482Z,157.30
2019-03-22T03:27:50.648Z,152.93
2019-03-22T03:30:23.222Z,151.22
2019-03-22T03:32:55.578Z,170.50
2019-03-22T03:35:24.514Z,159.43
2019-03-22T03:37:54.443Z,161.90
2019-03-22T03:40:23.669Z,167.35
2019-03-22T03:42:52.941Z,173.20
2019-03-22T03:45:35.262Z,165.68
2019-03-22T03:48:09.669Z,173.17
2019-03-22T03:50:38.897Z,169.30
2019-03-22T03:53:08.121Z,160.72
2019-03-22T03:55:37.366Z,167.50
2019-03-22T03:58:06.626Z,161.28
2019-03-22T04:00:35.867Z,176.10
2019-03-22T04:03:07.934Z,165.77
2019-03-22T04:05:38.100Z,169.77
2019-03-22T04:08:09.219Z,175.03
2019-03-22T04:10:40.583Z,172.45
2019-03-22T04:13:09.752Z,177.38
2019-03-22T04:15:39.054Z,173.07
2019-03-22T04:18:09.282Z,178.12
2019-03-22T04:20:40.504Z,183.85
2019-03-22T04:23:12.055Z,192.75
2019-03-22T04:25:41.316Z,180.80
2019-03-22T04:28:10.562Z,188.32
2019-03-22T04:30:39.755Z,188.75
2019-03-22T04:33:09.854Z,198.87
2019-03-22T04:35:40.946Z,180.90
2019-03-22T04:38:11.122Z,170.92
2019-03-22T04:40:41.368Z,180.90
2019-03-22T04:43:10.617Z,184.90
2019-03-22T04:45:39.803Z,173.80
2019-03-22T04:48:18.553Z,174.47
2019-03-22T04:50:47.774Z,184.20
2019-03-22T04:53:21.626Z,177.93
2019-03-22T04:55:58.832Z,172.82
2019-03-22T04:58:29.713Z,181.15
2019-03-22T05:00:59.018Z,172.53
2019-03-22T05:03:28.263Z,180.70
2019-03-22T05:05:57.454Z,182.60
2019-03-22T05:08:26.698Z,162.10
2019-03-22T05:10:56.963Z,171.45
2019-03-22T05:13:27.079Z,175.40
2019-03-22T05:15:56.278Z,188.97
2019-03-22T05:18:26.141Z,182.10
2019-03-22T05:20:55.384Z,178.30
2019-03-22T05:23:24.654Z,165.45
2019-03-22T05:25:53.924Z,160.55
2019-03-22T05:28:23.546Z,165.20
2019-03-22T05:31:05.117Z,161.12
2019-03-22T05:33:34.402Z,155.45
2019-03-22T05:36:03.601Z,157.72
2019-03-22T05:38:33.947Z,147.75
2019-03-22T05:41:03.245Z,157.75
2019-03-22T05:43:33.387Z,148.68
2019-03-22T05:46:03.586Z,160.30
2019-03-22T05:48:32.829Z,148.50
2019-03-22T05:51:02.099Z,191.28
2019-03-22T05:53:31.357Z,170.80
2019-03-22T05:56:00.529Z,168.20
2019-03-22T05:58:29.803Z,179.70
2019-03-22T06:00:59.048Z,164.90
2019-03-22T06:03:28.323Z,167.40
2019-03-22T06:06:04.281Z,151.07
2019-03-22T06:08:33.539Z,144.53
2019-03-22T06:11:02.719Z,151.22
2019-03-22T06:13:31.931Z,136.75
2019-03-22T06:16:01.168Z,140.30
2019-03-22T06:18:30.395Z,130.20
2019-03-22T06:21:02.280Z,120.57
2019-03-22T06:23:31.509Z,104.07
2019-03-22T06:26:01.859Z,115.82
2019-03-22T06:28:34.633Z,109.15
2019-03-22T06:31:03.832Z,103.25
2019-03-22T06:33:33.101Z,99.15
2019-03-22T06:36:02.340Z,99.92
2019-03-22T06:38:31.595Z,98.45
2019-03-22T06:41:01.831Z,90.92
2019-03-22T06:43:31.114Z,99.10
2019-03-22T06:46:00.314Z,94.62
2019-03-22T06:48:29.566Z,89.20
2019-03-22T06:50:59.790Z,86.55
2019-03-22T06:53:29.067Z,82.37
2019-03-22T06:55:58.297Z,80.70
2019-03-22T06:58:27.469Z,81.97
2019-03-22T07:00:56.742Z,79.90
2019-03-22T07:03:25.925Z,82.05
2019-03-22T07:05:56.225Z,84.52
2019-03-22T07:08:26.495Z,73.65
2019-03-22T07:11:01.953Z,84.67
2019-03-22T07:13:32.218Z,70.60
2019-03-22T07:16:09.207Z,71.85
2019-03-22T07:18:38.495Z,70.87
2019-03-22T07:21:14.104Z,72.72
2019-03-22T07:23:45.527Z,69.75
2019-03-22T07:26:14.741Z,67.72
2019-03-22T07:28:43.912Z,65.92
2019-03-22T07:31:14.786Z,68.42
2019-03-22T07:33:46.784Z,75.60
2019-03-22T07:36:16.108Z,70.20
2019-03-22T07:38:47.878Z,60.25
2019-03-22T07:41:22.684Z,53.68
2019-03-22T07:43:53.942Z,58.50
2019-03-22T07:46:26.415Z,55.30
2019-03-22T07:48:55.721Z,55.73
2019-03-22T07:51:26.582Z,53.68
2019-03-22T07:53:56.733Z,50.23
2019-03-22T07:56:25.887Z,49.77
2019-03-22T07:58:55.171Z,48.23
2019-03-22T08:01:24.542Z,49.25
2019-03-22T08:03:53.708Z,51.80
2019-03-22T08:06:22.977Z,41.28
2019-03-22T08:08:52.163Z,40.03
2019-03-22T08:11:24.847Z,42.95
2019-03-22T08:13:53.399Z,41.93
2019-03-22T08:16:22.582Z,45.80
2019-03-22T08:18:51.756Z,36.42
2019-03-22T08:21:22.011Z,38.02
2019-03-22T08:23:52.333Z,31.90
2019-03-22T08:26:21.489Z,34.58
2019-03-22T08:28:50.656Z,33.92
2019-03-22T08:31:19.900Z,30.32
2019-03-22T08:33:51.529Z,38.98
2019-03-22T08:38:50.432Z,27.32
2019-03-22T08:41:19.679Z,30.27
2019-03-22T08:43:48.865Z,31.30
2019-03-22T08:46:19.133Z,29.67
2019-03-22T08:48:49.299Z,26.55
2019-03-22T08:51:18.497Z,27.00
2019-03-22T08:53:55.086Z,27.95
2019-03-22T08:56:18.631Z,25.40
2019-03-22T08:58:47.875Z,27.05
2019-03-22T09:01:18.195Z,28.27
2019-03-22T09:03:48.016Z,29.75
2019-03-22T09:06:18.370Z,25.32
2019-03-22T09:08:47.999Z,26.42
2019-03-22T09:11:18.395Z,29.37
2019-03-22T09:13:47.675Z,23.10
2019-03-22T09:16:16.931Z,23.83
2019-03-22T09:18:46.189Z,26.05
2019-03-22T09:21:15.400Z,20.65
2019-03-22T09:23:44.611Z,20.92
2019-03-22T09:26:19.929Z,22.30
2019-03-22T09:28:48.475Z,21.15
2019-03-22T09:31:18.758Z,20.30
2019-03-22T09:33:47.943Z,21.77
2019-03-22T09:36:17.270Z,17.70
2019-03-22T09:38:46.534Z,18.98
2019-03-22T09:41:15.757Z,19.35
2019-03-22T09:43:46.649Z,17.77
2019-03-22T09:46:15.871Z,19.05
2019-03-22T09:48:45.282Z,17.02
2019-03-22T09:51:14.513Z,18.92
2019-03-22T09:53:43.727Z,16.80
2019-03-22T09:56:12.988Z,15.18
2019-03-22T09:58:43.607Z,18.65
2019-03-22T10:01:23.193Z,19.02
2019-03-22T10:03:44.815Z,24.43
2019-03-22T10:06:14.049Z,15.68
2019-03-22T10:08:43.240Z,14.15
2019-03-22T10:11:12.528Z,17.20
2019-03-22T10:13:41.805Z,17.77
2019-03-22T10:16:11.103Z,14.87
2019-03-22T10:18:40.367Z,15.95
2019-03-22T10:21:21.930Z,15.83
2019-03-22T10:23:41.481Z,17.10
2019-03-22T10:26:10.654Z,16.87
2019-03-22T10:28:39.926Z,18.07
2019-03-22T10:31:09.271Z,18.37
2019-03-22T10:33:38.513Z,17.73
2019-03-22T10:36:07.698Z,16.17
2019-03-22T10:38:36.962Z,16.17
2019-03-22T10:41:06.225Z,13.80
2019-03-22T10:43:35.469Z,14.63
2019-03-22T10:46:07.947Z,16.30
2019-03-22T10:48:37.853Z,19.25
2019-03-22T10:51:07.097Z,17.27
2019-03-22T10:53:36.386Z,20.32
2019-03-22T10:56:05.609Z,14.98
2019-03-22T10:58:34.850Z,16.35
2019-03-22T11:01:08.133Z,13.78
2019-03-22T11:03:35.980Z,16.97
2019-03-22T11:06:05.203Z,16.17
2019-03-22T11:08:34.473Z,13.98
2019-03-22T11:11:03.694Z,13.62
2019-03-22T11:13:32.962Z,18.73
2019-03-22T11:16:02.218Z,13.13
2019-03-22T11:18:37.437Z,15.10
2019-03-22T11:21:05.535Z,13.58
2019-03-22T11:23:35.422Z,13.00
2019-03-22T11:26:05.774Z,12.60
2019-03-22T11:28:36.607Z,12.35
2019-03-22T11:31:05.873Z,12.18
2019-03-22T11:33:35.020Z,12.80
2019-03-22T11:36:04.193Z,17.55
2019-03-22T11:38:33.415Z,9.90
2019-03-22T11:41:02.651Z,13.18
2019-03-22T11:43:31.903Z,11.08
2019-03-22T11:46:01.158Z,10.43
2019-03-22T11:48:30.382Z,11.35
2019-03-22T11:50:59.618Z,14.68
2019-03-22T11:53:29.808Z,12.47
2019-03-22T11:56:00.021Z,11.12
2019-03-22T11:58:30.252Z,8.85
2019-03-22T12:00:59.442Z,14.10
2019-03-22T12:03:29.746Z,9.68
2019-03-22T12:05:58.911Z,10.32
2019-03-22T12:08:28.061Z,11.22
2019-03-22T12:10:58.127Z,10.82
2019-03-22T12:13:28.409Z,11.30
2019-03-22T12:15:58.018Z,9.60
2019-03-22T12:18:27.254Z,9.08
2019-03-22T12:20:56.731Z,9.93
2019-03-22T12:23:25.913Z,10.35
2019-03-22T12:25:55.179Z,11.75
2019-03-22T12:28:25.662Z,10.70
2019-03-22T12:30:54.834Z,12.05
2019-03-22T12:33:25.633Z,13.50
2019-03-22T12:35:54.925Z,11.25
2019-03-22T12:38:25.286Z,10.13
2019-03-22T12:40:54.501Z,10.25
2019-03-22T12:43:24.770Z,11.90
2019-03-22T12:45:54.142Z,12.10
2019-03-22T12:48:23.360Z,10.82
2019-03-22T12:50:53.779Z,14.38
2019-03-22T12:53:22.994Z,13.13
2019-03-22T12:55:53.253Z,12.33
2019-03-22T12:58:22.434Z,13.20
2019-03-22T13:00:51.682Z,13.80
2019-03-22T13:03:20.884Z,11.45
2019-03-22T13:05:50.107Z,13.05
2019-03-22T13:08:20.200Z,15.38
2019-03-22T13:10:49.377Z,12.68
2019-03-22T13:13:18.548Z,11.30
2019-03-22T13:15:49.668Z,12.30
2019-03-22T13:18:26.733Z,12.73
2019-03-22T13:20:56.029Z,15.50
2019-03-22T13:23:26.199Z,14.98
2019-03-22T13:25:55.499Z,15.48
2019-03-22T13:28:24.775Z,13.25
2019-03-22T13:30:53.941Z,12.47
2019-03-22T13:33:23.099Z,13.35
2019-03-22T13:35:53.613Z,13.28
2019-03-22T13:38:22.857Z,11.80
2019-03-22T13:40:52.042Z,13.85
2019-03-22T13:43:21.225Z,10.93
2019-03-22T13:45:51.417Z,10.78
2019-03-22T13:48:27.756Z,11.80
2019-03-22T13:51:06.206Z,11.38
2019-03-22T13:53:46.954Z,144.40
2019-03-22T13:56:23.833Z,10.88
2019-03-22T13:58:58.924Z,12.23
2019-03-22T14:01:32.135Z,14.18
2019-03-22T14:04:13.014Z,10.30
2019-03-22T14:06:50.222Z,12.78
2019-03-22T14:18:13.286Z,17.15
2019-03-22T14:23:48.898Z,16.15
2019-03-22T14:26:20.992Z,17.90
2019-03-22T14:31:48.864Z,18.70
2019-03-22T14:34:26.648Z,17.30
2019-03-22T14:37:08.780Z,14.98
2019-03-22T14:45:47.183Z,14.70
2019-03-22T14:48:23.571Z,15.20
2019-03-22T14:54:05.939Z,16.52
2019-03-22T14:59:33.447Z,18.73
2019-03-22T15:02:07.323Z,16.20
2019-03-22T15:16:31.909Z,12.05
2019-03-22T15:19:09.919Z,13.50
2019-03-22T15:21:52.309Z,14.45
2019-03-22T15:24:38.990Z,14.63
2019-03-22T15:33:14.709Z,12.73
2019-03-22T15:45:01.801Z,13.32
2019-03-22T15:47:36.825Z,16.60
2019-03-22T15:50:13.128Z,21.23
2019-03-22T15:52:42.763Z,21.35
2019-03-22T15:55:13.959Z,18.90
2019-03-22T15:57:44.901Z,22.70
2019-03-22T16:00:18.339Z,20.30
2019-03-22T16:02:48.726Z,18.80
2019-03-22T16:05:19.354Z,19.55
2019-03-22T16:07:48.655Z,16.40
2019-03-22T16:10:22.397Z,19.00
2019-03-22T16:13:07.720Z,16.15
2019-03-22T16:15:40.804Z,17.82
2019-03-22T16:18:10.936Z,17.82
2019-03-22T16:20:40.202Z,18.92
2019-03-22T16:23:13.189Z,14.58
2019-03-22T16:28:46.061Z,17.42
2019-03-22T16:31:15.349Z,16.30
2019-03-22T16:33:54.332Z,18.40
2019-03-22T16:36:22.190Z,17.35
2019-03-22T16:38:51.434Z,18.30
2019-03-22T16:41:22.053Z,14.95
2019-03-22T16:43:57.121Z,21.33
2019-03-22T16:46:28.088Z,18.48
2019-03-22T16:48:57.387Z,16.70
2019-03-22T16:51:28.378Z,15.50
2019-03-22T16:54:00.574Z,16.95
2019-03-22T16:56:31.149Z,24.50
2019-03-22T16:59:01.383Z,17.02
2019-03-22T17:01:32.657Z,15.95
2019-03-22T17:04:04.844Z,18.82
2019-03-22T17:06:35.780Z,18.35
2019-03-22T17:09:07.127Z,17.73
2019-03-22T17:11:37.299Z,17.48
2019-03-22T17:14:10.479Z,16.52
2019-03-22T17:16:39.816Z,19.67
2019-03-22T17:19:10.265Z,19.55
2019-03-22T17:21:43.387Z,18.17
2019-03-22T17:24:13.643Z,18.40
2019-03-22T17:26:42.882Z,17.10
2019-03-22T17:29:12.072Z,17.42
2019-03-22T17:31:41.251Z,17.73
2019-03-22T17:34:14.189Z,16.77
2019-03-22T17:36:41.287Z,19.30
2019-03-22T17:39:10.485Z,21.00
2019-03-22T17:41:39.770Z,23.05
2019-03-22T17:44:09.029Z,22.55
2019-03-22T17:46:38.316Z,22.15
2019-03-22T17:49:07.541Z,28.10
2019-03-22T17:51:36.803Z,20.40
2019-03-22T17:54:06.086Z,24.18
2019-03-22T17:56:35.325Z,22.05
2019-03-22T17:59:09.501Z,22.58
2019-03-22T18:01:38.937Z,26.73
2019-03-22T18:04:08.193Z,25.02
2019-03-22T18:06:38.475Z,29.48
2019-03-22T18:09:09.265Z,32.40
2019-03-22T18:11:38.531Z,36.33
2019-03-22T18:14:07.782Z,33.95
2019-03-22T18:16:37.650Z,37.88
2019-03-22T18:19:06.877Z,37.35
2019-03-22T18:21:37.071Z,35.90
2019-03-22T18:24:07.244Z,37.88
2019-03-22T18:26:37.484Z,39.53
2019-03-22T18:29:06.721Z,39.60
2019-03-22T18:31:35.930Z,42.58
2019-03-22T18:34:05.153Z,41.28
2019-03-22T18:36:34.423Z,41.20
2019-03-22T18:39:07.322Z,41.08
2019-03-22T18:44:05.130Z,43.00
2019-03-22T18:46:34.394Z,48.52
2019-03-22T18:49:03.704Z,47.27
2019-03-22T18:51:32.921Z,47.33
2019-03-22T18:54:03.143Z,45.33
2019-03-22T18:56:32.324Z,44.67
2019-03-22T18:59:04.195Z,51.28
2019-03-22T19:01:33.392Z,50.90
2019-03-22T19:04:02.660Z,53.33
2019-03-22T19:06:31.950Z,49.15
2019-03-22T19:09:02.390Z,50.55
2019-03-22T19:11:32.952Z,50.35
2019-03-22T19:14:05.679Z,52.03
2019-03-22T19:16:34.858Z,55.33
2019-03-22T19:19:04.093Z,53.40
2019-03-22T19:21:33.369Z,51.77
2019-03-22T19:24:02.610Z,48.60
2019-03-22T19:26:36.262Z,52.00
2019-03-22T19:29:05.504Z,51.13
2019-03-22T19:31:36.518Z,48.98
2019-03-22T19:34:05.769Z,52.10
2019-03-22T19:36:34.969Z,56.02
2019-03-22T19:39:06.699Z,50.03
2019-03-22T19:41:36.065Z,56.18
2019-03-22T19:44:08.325Z,68.07
2019-03-22T19:46:37.624Z,86.22
2019-03-22T19:49:06.868Z,86.37
2019-03-22T19:51:37.329Z,90.53
2019-03-22T19:54:07.675Z,95.92
2019-03-22T19:56:36.891Z,89.95
2019-03-22T19:59:06.189Z,102.17
2019-03-22T20:01:38.979Z,102.32
2019-03-22T20:04:32.738Z,97.50
2019-03-22T20:07:05.393Z,103.17
2019-03-22T20:09:34.828Z,106.95
2019-03-22T20:12:06.201Z,112.17
2019-03-22T20:14:39.882Z,113.85
2019-03-22T20:17:10.210Z,116.65
2019-03-22T20:19:45.366Z,121.28
2019-03-22T20:25:10.319Z,127.45
2019-03-22T20:30:11.619Z,121.25
2019-03-22T20:35:36.868Z,132.22
2019-03-22T20:38:06.130Z,132.67
2019-03-22T20:40:35.390Z,122.28
2019-03-22T20:43:04.669Z,135.35
2019-03-22T20:45:33.931Z,142.87
2019-03-22T20:48:05.138Z,136.77
2019-03-22T20:50:36.619Z,146.50
2019-03-22T20:53:06.987Z,147.28
2019-03-22T20:55:38.546Z,145.53
2019-03-22T20:58:08.685Z,151.27
2019-03-22T21:00:38.008Z,168.45
2019-03-22T21:03:08.216Z,152.68
2019-03-22T21:05:37.470Z,154.60
2019-03-22T21:08:06.660Z,151.53
2019-03-22T21:10:38.500Z,159.57
2019-03-22T21:13:08.776Z,156.47
2019-03-22T21:15:38.059Z,171.35
2019-03-22T21:18:08.279Z,162.70
2019-03-22T21:20:37.546Z,174.62
2019-03-22T21:23:08.727Z,175.18
2019-03-22T21:25:40.799Z,171.37
2019-03-22T21:28:11.608Z,168.75
2019-03-22T21:30:40.925Z,163.18
2019-03-22T21:33:10.904Z,161.32
2019-03-22T21:35:40.168Z,162.15
2019-03-22T21:38:11.022Z,161.82
2019-03-22T21:40:40.659Z,167.93
2019-03-22T21:43:11.326Z,174.38
2019-03-22T21:45:42.162Z,167.37
2019-03-22T21:48:11.407Z,172.55
2019-03-22T21:50:42.632Z,166.53
2019-03-22T21:53:12.936Z,165.00
2019-03-22T21:55:49.930Z,175.15
2019-03-22T21:58:26.571Z,177.22
2019-03-22T22:01:08.104Z,178.00
2019-03-22T22:03:44.800Z,197.15
2019-03-22T22:06:18.484Z,201.10
2019-03-22T22:08:52.867Z,200.78
2019-03-22T22:11:22.181Z,200.97
2019-03-22T22:13:52.299Z,194.72
2019-03-22T22:16:23.882Z,218.22
2019-03-22T22:18:55.446Z,225.45
2019-03-22T22:21:26.783Z,243.40
2019-03-22T22:23:57.051Z,232.00
2019-03-22T22:26:27.820Z,239.80
2019-03-22T22:28:57.835Z,250.20
2019-03-22T22:31:31.159Z,255.87
2019-03-22T22:34:08.055Z,256.75
2019-03-22T22:36:37.406Z,275.98
2019-03-22T22:39:06.572Z,319.13
2019-03-22T22:41:37.461Z,322.88
2019-03-22T22:44:06.774Z,318.33
2019-03-22T22:46:37.563Z,331.13
2019-03-22T22:49:06.900Z,339.23
2019-03-22T22:51:36.147Z,370.05
2019-03-22T22:54:05.453Z,384.70
2019-03-22T22:56:34.755Z,374.60
2019-03-22T22:59:05.300Z,360.95
2019-03-22T23:01:34.742Z,359.70
2019-03-22T23:04:04.268Z,358.82
2019-03-22T23:06:34.989Z,342.90
2019-03-22T23:09:07.370Z,363.30
2019-03-22T23:11:41.271Z,365.30
2019-03-22T23:14:10.579Z,354.87
2019-03-22T23:16:41.993Z,377.40
2019-03-22T23:19:11.527Z,356.43
2019-03-22T23:21:46.358Z,395.37
2019-03-22T23:24:17.150Z,411.85
2019-03-22T23:26:54.429Z,446.98
2019-03-22T23:29:28.249Z,340.43
2019-03-22T23:31:57.674Z,403.40
2019-03-22T23:34:28.372Z,343.23
2019-03-22T23:36:57.690Z,313.75
2019-03-22T23:39:26.974Z,314.17
2019-03-22T23:41:58.874Z,363.62
2019-03-22T23:44:30.213Z,399.25
2019-03-22T23:46:59.400Z,336.90
2019-03-22T23:52:21.255Z,232.50
2019-03-22T23:54:50.544Z,211.18
2019-03-22T23:57:21.987Z,203.62
2019-03-22T23:59:52.260Z,206.25
